Hualapai Flat, Nevada Weather observations

Data are for 10 minute period ending at time listed.
 Day   Time   Solar   Ave.   Ave.  Ave.  Vector  Max.   Baro.   Total    
  of    of     Rad.   Air    Rel.  Wind   Wind   Wind  Press.  Precip.   
Year   Day            Temp.  Hum.  Speed  Dir.   Gust                    
2014   (PST)  Kw/m2    F      %     mph   deg.    mph    mb.     in.     
-------------------------------------------------------------------------
 325   20:30   0.00   45.9    67    5.9     8     8.8   872.8    0.00 
 325   20:40   0.00   45.5    68    4.8    17     7.5   872.7    0.00 
 325   20:50   0.00   44.2    72    6.1    38     7.9   872.6    0.00 
 325   21:00   0.00   43.7    74    5.0    16     7.7   872.6    0.00 
 325   21:10   0.00   43.6    74    5.8    64     8.6   872.3    0.00 
 325   21:20   0.00   44.6    72    6.9    78    11.1   872.0    0.00 
 325   21:30   0.00   46.3    68    5.2   144     9.9   871.9    0.00 
 325   21:40   0.00   45.8    69    3.1   322     5.2   872.5    0.00 
 325   21:50   0.00   45.2    71    6.9    16    14.5   872.7    0.00 
 325   22:00   0.00   44.9    72    7.8     1    13.2   872.8    0.00 
 325   22:10   0.00   44.4    73    7.9    44    11.8   872.8    0.00 
 325   22:20   0.00   46.4    69    6.2    42    12.1   872.8    0.00 
 325   22:30   0.00   46.7    68    7.3   331    11.2   873.3    0.00 
 325   22:40   0.00   50.2    63   12.8   255    19.8   873.0    0.00 
 325   22:50   0.00   51.1    61    7.5   232    13.7   873.0    0.00 
 325   23:00   0.00   51.0    61    3.7   272     9.6   873.2    0.00 
 325   23:10   0.00   51.2    61    7.7   222    12.9   873.4    0.00 
 325   23:20   0.00   50.8    62    3.8   222     8.0   873.5    0.00 
 325   23:30   0.00   49.9    64    7.5   180    17.4   873.3    0.00 
 325   23:40   0.00   49.5    66    9.4   215    14.5   873.5    0.00 
 325   23:50   0.00   49.0    66    6.8   175    15.8   873.3    0.00 
 326    0:00   0.00   48.7    66    2.9   105     5.6   873.4    0.00 
 326    0:10   0.00   47.5    70    2.4   116     4.9   873.1    0.00 
 326    0:20   0.00   47.0    71    0.6    19     2.0   873.0    0.00 
 326    0:30   0.00   47.1    71    1.6   218     4.6   872.8    0.00 
 326    0:40   0.00   46.6    74    3.6   298     5.0   872.5    0.00 
 326    0:50   0.00   45.8    78    3.4   326     4.8   872.4    0.00 
 326    1:00   0.00   46.0    77    2.2   299     5.6   872.2    0.00 
 326    1:10   0.00   45.7    78    3.0   294     4.6   872.0    0.00 
 326    1:20   0.00   46.7    74    2.5   192     8.7   871.5    0.00 
 326    1:30   0.00   47.6    72    4.5   201     9.3   871.5    0.00 
 326    1:40   0.00   47.7    71    4.1   270     8.0   871.5    0.00 
 326    1:50   0.00   47.8    71    5.2   233    17.9   871.5    0.00 
 326    2:00   0.00   48.3    70    4.6    74     9.5   871.5    0.00 
 326    2:10   0.00   48.4    70    6.3   125    13.0   871.4    0.00 
 326    2:20   0.00   49.0    68    6.9   137    14.4   871.3    0.00 
 326    2:30   0.00   48.9    68    5.9    46    15.1   871.2    0.00 
 326    2:40   0.00   48.8    68    2.0    36     5.3   871.0    0.00 
 326    2:50   0.00   48.6    69    4.1   126    19.0   871.0    0.00 
 326    3:00   0.00   49.7    66    3.9    85     9.9   870.9    0.00 
 326    3:10   0.00   49.8    68   10.3   229    24.8   870.8    0.00 
 326    3:20   0.00   49.8    71   11.1   200    25.6   870.5    0.01 
 326    3:30   0.00   50.0    70   11.3   161    27.3   870.3    0.00 
 326    3:40   0.00   49.0    72   10.7   194    24.9   870.2    0.00 
 326    3:50   0.00   50.6    70   16.6   212    28.2   870.0    0.00 
 326    4:00   0.00   50.1    72   13.7   217    24.2   869.9    0.00 
 326    4:10   0.00   50.4    73   18.9   223    31.4   869.8    0.00 
 326    4:20   0.00   49.7    77   19.0   228    32.1   870.0    0.01 
 326    4:30   0.00   49.2    77   19.5   232    29.1   869.7    0.01 
 326    4:40   0.00   49.7    75   18.9   236    32.1   869.5    0.00 
 326    4:50   0.00   50.5    73   24.0   232    42.5   869.1    0.00 
 326    5:00   0.00   50.1    74   19.5   233    28.1   869.2    0.00 
 326    5:10   0.00   50.4    72   19.6   242    32.0   869.4    0.00 
 326    5:20   0.00   50.8    71   19.1   239    30.7   869.7    0.00 
 326    5:30   0.00   50.5    72   14.8   246    25.8   869.7    0.00 
 326    5:40   0.00   50.2    74   17.0   242    33.6   869.7    0.00 
 326    5:50   0.00   50.2    74   12.1   240    19.4   869.9    0.00 
 326    6:00   0.00   50.3    74   15.9   235    26.1   869.9    0.00 
 326    6:10   0.00   49.9    75   13.2   225    24.0   869.7    0.00 
 326    6:20   0.00   50.0    74   16.7   239    32.2   869.5    0.00 
 326    6:30   0.00   50.2    73   19.0   232    39.8   869.4    0.00 
 326    6:40   0.00   50.6    72   16.9   233    27.4   869.4    0.00 
 326    6:50   0.00   50.8    72   19.9   225    33.5   869.4    0.00 
 326    7:00   0.00   50.0    75   20.9   230    31.1   869.3    0.00 
 326    7:10   0.01   49.5    76   16.4   235    32.7   869.3    0.00 
 326    7:20   0.01   50.4    72   18.3   231    28.1   869.3    0.00 
 326    7:30   0.04   50.5    72   20.7   239    36.0   869.3    0.00 
 326    7:40   0.05   50.3    72   20.0   239    28.5   869.4    0.00 
 326    7:50   0.05   50.4    72   21.5   244    34.2   869.5    0.00 
 326    8:00   0.02   50.4    72   21.4   249    34.3   869.7    0.00 
 326    8:10   0.03   50.1    72   23.8   248    34.3   869.7    0.00 
 326    8:20   0.08   50.1    73   20.8   249    34.3   870.0    0.00 
 326    8:30   0.11   50.5    72   19.9   252    27.6   870.1    0.00 
 326    8:40   0.09   50.6    71   19.9   252    28.5   870.2    0.00 
 326    8:50   0.20   51.5    69   19.2   256    30.4   870.3    0.00 
 326    9:00   0.23   51.9    68   17.1   253    26.3   870.2    0.00 
 326    9:10   0.27   52.9    65   19.7   249    27.2   870.1    0.00 
 326    9:20   0.34   53.6    63   21.7   250    32.2   870.2    0.00 
 326    9:30   0.29   54.0    62   19.1   255    31.9   870.6    0.00 
 326    9:40   0.35   54.1    61   19.4   253    28.9   870.8    0.00 
 326    9:50   0.39   54.9    59   19.8   257    27.6   870.7    0.00 
 326   10:00   0.41   55.1    58   20.3   255    30.0   870.8    0.00 
 326   10:10   0.42   55.4    56   23.8   254    34.3   870.8    0.00 
 326   10:20   0.44   55.4    55   24.5   255    35.4   870.8    0.00 
 326   10:30   0.46   55.8    53   23.9   253    35.4   870.7    0.00 
 326   10:40   0.48   55.9    53   24.4   256    36.3   870.7    0.00 
 326   10:50   0.35   56.0    52   25.2   258    36.8   870.6    0.00 
 326   11:00   0.28   54.8    52   21.9   261    34.0   870.5    0.00 
 326   11:10   0.56   56.7    48   25.2   263    40.4   870.4    0.00 
 326   11:20   0.64   57.6    47   21.9   265    29.6   870.4    0.00 
 326   11:30   0.53   58.2    45   19.9   266    29.9   870.5    0.00 
 326   11:40   0.47   57.1    47   17.1   281    35.7   870.5    0.00 
 326   11:50   0.38   55.9    47   22.0   268    32.7   870.4    0.00 
 326   12:00   0.17   54.8    50   23.9   272    39.8   870.6    0.00 
 326   12:10   0.07   51.1    57   23.3   280    40.8   870.7    0.00 
 326   12:20   0.30   52.3    52   29.1   278    41.0   870.5    0.00 
 326   12:30   0.18   53.5    49   24.9   280    38.6   870.7    0.00 
 326   12:40   0.29   53.0    46   28.4   278    44.1   870.9    0.00 
 326   12:50   0.41   51.7    56   26.9   293    43.0   871.8    0.00 
 326   13:00   0.45   46.4    74   23.9   322    32.5   872.3    0.00 
 326   13:10   0.39   45.1    78   17.6   312    29.4   872.2    0.00 
 326   13:20   0.27   46.5    67   20.5   285    28.2   872.1    0.00 
 326   13:30   0.31   48.1    61   19.3   285    27.4   872.3    0.00 
 326   13:40   0.22   47.4    63   17.1   290    24.8   872.4    0.00 
 326   13:50   0.38   49.3    58   19.2   293    28.4   872.4    0.00 
 326   14:00   0.32   49.7    56   19.0   287    28.9   872.7    0.00 
 326   14:10   0.34   49.7    55   17.2   293    25.1   872.8    0.00 
 326   14:20   0.33   50.4    49   20.0   287    30.2   873.1    0.00 
 326   14:30   0.27   48.8    53   21.4   317    30.0   873.4    0.00 
 326   14:40   0.15   46.4    57   21.4   302    31.4   873.9    0.00 
 326   14:50   0.12   43.9    70   19.3   294    30.2   874.1    0.00 
 326   15:00   0.21   43.3    75   10.8   283    20.3   874.0    0.00 
 326   15:10   0.20   44.4    69   15.3   289    24.5   873.8    0.00 
 326   15:20   0.11   44.7    67   13.1   286    17.8   874.2    0.00 
 326   15:30   0.04   44.2    65   13.5   284    20.8   874.5    0.00 
 326   15:40   0.03   43.5    68   14.2   280    20.8   874.6    0.00 
 326   15:50   0.02   42.0    73   10.9   288    16.6   874.7    0.00 
 326   16:00   0.02   41.6    74    8.3   302    12.6   874.8    0.00 
 326   16:10   0.01   41.9    69    8.0   299    13.1   874.8    0.00 
 326   16:20   0.01   42.8    64    8.1   312    12.6   874.9    0.00 
 326   16:30   0.01   42.3    64    6.5   316     9.6   875.3    0.00 
 326   16:40   0.00   42.7    58   13.3   327    26.2   875.6    0.00 
 326   16:50   0.00   43.2    53   14.6   323    25.3   875.7    0.00 
 326   17:00   0.00   43.1    51   15.7   318    23.2   875.9    0.00 
 326   17:10   0.00   42.7    51   12.7   316    20.3   876.1    0.00 
 326   17:20   0.00   42.3    52   10.6   317    19.4   876.1    0.00 
 326   17:30   0.00   41.1    56    7.7   334    12.3   876.1    0.00 
 326   17:40   0.00   39.4    59    5.0   327     7.2   876.4    0.00 
 326   17:50   0.00   39.6    59    3.6   294     8.6   876.5    0.00 
 326   18:00   0.00   39.8    58    6.9   325    13.8   876.9    0.00 
 326   18:10   0.00   39.4    59    5.0   305     7.2   877.1    0.00 
 326   18:20   0.00   39.3    59    4.7   270     6.8   877.1    0.00 
 326   18:30   0.00   37.9    62    5.3   294     8.0   877.3    0.00 
 326   18:40   0.00   38.7    63    7.4   314    11.6   877.6    0.00 
 326   18:50   0.00   40.0    58   13.8   314    20.3   877.6    0.00 
 326   19:00   0.00   40.6    55   16.5   308    24.1   877.7    0.00 
 326   19:10   0.00   40.2    56   12.6   313    20.8   878.0    0.00 
 326   19:20   0.00   39.8    57   10.7   323    15.6   878.5    0.00 
 326   19:30   0.00   39.5    58    7.9   332    13.2   878.7    0.00 
 326   19:40   0.00   38.1    60    3.9    39     9.0   878.8    0.00 
 326   19:50   0.00   35.9    65    3.6     8     6.3   878.8    0.00 
 326   20:00   0.00   36.3    66    5.2    40     7.3   879.1    0.00 
 326   20:10   0.00   37.6    64    6.9    43    12.2   879.1    0.00 
 326   20:20   0.00   38.0    63    7.0    38    11.0   879.3    0.00 

Return to Hualapai Flat graphs page.


Western Regional Climate Center,wrcc@dri.edu